createdAt,value
2022-07-27T00:00:40.418Z,20.21
2022-07-27T00:01:50.925Z,20.21
2022-07-27T00:02:56.151Z,20.20
2022-07-27T00:04:00.963Z,20.09
2022-07-27T00:05:05.386Z,20.19
2022-07-27T00:06:09.893Z,20.21
2022-07-27T00:07:19.487Z,20.19
2022-07-27T00:08:24.256Z,20.20
2022-07-27T00:09:28.171Z,20.20
2022-07-27T00:10:33.465Z,20.18
2022-07-27T00:11:37.458Z,20.18
2022-07-27T00:12:41.807Z,20.14
2022-07-27T00:13:46.299Z,20.15
2022-07-27T00:14:50.305Z,20.03
2022-07-27T00:15:54.726Z,20.10
2022-07-27T00:16:58.763Z,20.09
2022-07-27T00:18:02.848Z,20.08
2022-07-27T00:19:09.056Z,20.08
2022-07-27T00:20:13.833Z,20.07
2022-07-27T00:21:17.687Z,20.06
2022-07-27T00:22:22.916Z,20.08
2022-07-27T00:23:26.923Z,20.09
2022-07-27T00:24:31.011Z,20.09
2022-07-27T00:25:35.625Z,20.08
2022-07-27T00:26:39.529Z,20.07
2022-07-27T00:27:43.772Z,20.07
2022-07-27T00:28:47.722Z,19.99
2022-07-27T00:29:51.658Z,20.05
2022-07-27T00:30:55.692Z,19.95
2022-07-27T00:32:01.794Z,20.03
2022-07-27T00:33:06.281Z,20.04
2022-07-27T00:34:10.086Z,20.03
2022-07-27T00:35:14.283Z,19.99
2022-07-27T00:36:18.205Z,20.00
2022-07-27T00:37:22.131Z,20.00
2022-07-27T00:38:26.001Z,19.97
2022-07-27T00:39:30.151Z,19.99
2022-07-27T00:40:34.034Z,19.87
2022-07-27T00:41:37.880Z,19.91
2022-07-27T00:42:41.999Z,19.86
2022-07-27T00:43:57.553Z,19.85
2022-07-27T00:45:02.480Z,19.86
2022-07-27T00:46:06.340Z,19.81
2022-07-27T00:47:10.037Z,19.69
2022-07-27T00:48:13.853Z,19.69
2022-07-27T00:49:17.732Z,19.76
2022-07-27T00:50:21.661Z,19.80
2022-07-27T00:51:26.308Z,19.81
2022-07-27T00:52:31.231Z,19.68
2022-07-27T00:53:35.664Z,19.83
2022-07-27T00:54:41.822Z,19.79
2022-07-27T00:55:48.142Z,19.82
2022-07-27T00:56:52.389Z,19.78
2022-07-27T00:57:59.247Z,19.77
2022-07-27T00:59:06.509Z,19.82
2022-07-27T01:00:12.160Z,19.78
2022-07-27T01:01:19.321Z,19.78
2022-07-27T01:02:23.906Z,19.80
2022-07-27T01:03:29.639Z,19.80
2022-07-27T01:04:34.273Z,19.81
2022-07-27T01:05:43.325Z,19.81
2022-07-27T01:06:48.493Z,19.78
2022-07-27T01:07:52.517Z,19.78
2022-07-27T01:09:17.398Z,19.75
2022-07-27T01:10:21.850Z,19.75
2022-07-27T01:11:25.961Z,19.76
2022-07-27T01:12:32.491Z,19.76
2022-07-27T01:13:37.594Z,19.65
2022-07-27T01:14:41.401Z,19.70
2022-07-27T01:15:45.588Z,19.70
2022-07-27T01:16:49.419Z,19.71
2022-07-27T01:17:53.461Z,19.69
2022-07-27T01:18:57.226Z,19.69
2022-07-27T01:20:01.044Z,19.68
2022-07-27T01:21:09.495Z,19.69
2022-07-27T01:22:14.535Z,19.70
2022-07-27T01:23:18.417Z,19.58
2022-07-27T01:24:22.497Z,19.68
2022-07-27T01:25:26.624Z,19.69
2022-07-27T01:26:31.961Z,19.69
2022-07-27T01:27:35.962Z,19.67
2022-07-27T01:28:45.016Z,19.65
2022-07-27T01:29:49.341Z,19.67
2022-07-27T01:30:53.880Z,19.58
2022-07-27T01:31:58.292Z,19.68
2022-07-27T01:33:04.587Z,19.63
2022-07-27T01:34:08.621Z,19.43
2022-07-27T01:35:14.015Z,19.62
2022-07-27T01:36:18.052Z,19.62
2022-07-27T01:37:21.799Z,19.58
2022-07-27T01:38:26.172Z,19.59
2022-07-27T01:39:31.317Z,19.57
2022-07-27T01:40:37.351Z,19.55
2022-07-27T01:41:41.107Z,19.56
2022-07-27T01:42:45.014Z,19.54
2022-07-27T01:43:49.154Z,19.52
2022-07-27T01:44:53.166Z,19.50
2022-07-27T01:45:56.906Z,19.42
2022-07-27T01:47:00.664Z,19.40
2022-07-27T01:48:05.537Z,19.50
2022-07-27T01:49:10.065Z,19.49
2022-07-27T01:50:14.945Z,19.49
2022-07-27T01:51:18.794Z,19.51
2022-07-27T01:52:22.586Z,19.52
2022-07-27T01:53:26.528Z,19.49
2022-07-27T01:54:30.962Z,19.46
2022-07-27T01:55:38.690Z,19.47
2022-07-27T01:56:43.099Z,19.35
2022-07-27T01:57:47.314Z,19.45
2022-07-27T01:58:51.144Z,19.44
2022-07-27T01:59:54.809Z,19.37
2022-07-27T02:00:58.532Z,19.43
2022-07-27T02:02:02.338Z,19.43
2022-07-27T02:03:09.254Z,19.42
2022-07-27T02:04:13.249Z,19.43
2022-07-27T02:05:17.257Z,19.39
2022-07-27T02:06:21.424Z,19.39
2022-07-27T02:07:26.910Z,19.39
2022-07-27T02:08:30.799Z,19.34
2022-07-27T02:09:34.635Z,19.35
2022-07-27T02:10:58.663Z,19.24
2022-07-27T02:12:21.098Z,19.38
2022-07-27T02:13:26.381Z,19.35
2022-07-27T02:14:30.205Z,19.35
2022-07-27T02:15:43.246Z,19.32
2022-07-27T02:16:48.731Z,19.34
2022-07-27T02:17:56.111Z,19.29
2022-07-27T02:18:59.853Z,19.30
2022-07-27T02:20:10.776Z,19.27
2022-07-27T02:21:15.242Z,19.25
2022-07-27T02:22:18.877Z,19.26
2022-07-27T02:23:22.776Z,19.26
2022-07-27T02:24:26.569Z,19.17
2022-07-27T02:25:30.566Z,19.26
2022-07-27T02:26:36.960Z,19.23
2022-07-27T02:27:42.728Z,19.19
2022-07-27T02:28:46.704Z,19.18
2022-07-27T02:29:50.592Z,19.23
2022-07-27T02:30:54.698Z,19.22
2022-07-27T02:31:58.467Z,19.14
2022-07-27T02:33:02.590Z,19.25
2022-07-27T02:34:08.035Z,19.23
2022-07-27T02:35:18.920Z,19.21
2022-07-27T02:36:24.443Z,19.14
2022-07-27T02:37:28.365Z,19.11
2022-07-27T02:38:32.252Z,19.21
2022-07-27T02:39:36.325Z,19.23
2022-07-27T02:40:40.043Z,19.20
2022-07-27T02:41:46.622Z,19.11
2022-07-27T02:42:50.498Z,19.19
2022-07-27T02:43:54.348Z,19.17
2022-07-27T02:44:57.957Z,19.15
2022-07-27T02:46:01.773Z,19.10
2022-07-27T02:47:05.619Z,19.17
2022-07-27T02:48:09.308Z,19.18
2022-07-27T02:49:13.325Z,19.17
2022-07-27T02:50:17.498Z,19.18
2022-07-27T02:51:21.402Z,19.20
2022-07-27T02:52:25.243Z,19.20
2022-07-27T02:53:30.870Z,19.18
2022-07-27T02:54:35.318Z,19.19
2022-07-27T02:55:39.212Z,19.08
2022-07-27T02:56:43.752Z,19.20
2022-07-27T02:57:47.826Z,19.18
2022-07-27T02:58:51.639Z,19.21
2022-07-27T02:59:55.626Z,19.18
2022-07-27T03:01:01.389Z,19.15
2022-07-27T03:02:05.250Z,19.15
2022-07-27T03:03:09.183Z,19.16
2022-07-27T03:04:13.487Z,19.12
2022-07-27T03:05:19.146Z,19.14
2022-07-27T03:06:23.762Z,19.03
2022-07-27T03:07:28.483Z,19.14
2022-07-27T03:08:32.298Z,18.98
2022-07-27T03:09:36.863Z,19.08
2022-07-27T03:10:40.802Z,19.07
2022-07-27T03:11:52.579Z,19.06
2022-07-27T03:12:56.643Z,19.06
2022-07-27T03:14:00.527Z,18.98
2022-07-27T03:15:05.386Z,19.05
2022-07-27T03:16:09.230Z,18.95
2022-07-27T03:17:13.095Z,19.05
2022-07-27T03:18:17.047Z,19.05
2022-07-27T03:19:21.179Z,19.05
2022-07-27T03:20:25.693Z,19.09
2022-07-27T03:21:29.502Z,19.10
2022-07-27T03:22:33.685Z,19.09
2022-07-27T03:23:37.684Z,19.06
2022-07-27T03:24:41.521Z,19.04
2022-07-27T03:25:45.265Z,18.99
2022-07-27T03:26:49.166Z,19.04
2022-07-27T03:27:52.902Z,19.01
2022-07-27T03:28:57.819Z,18.99
2022-07-27T03:30:02.662Z,18.99
2022-07-27T03:31:07.165Z,18.99
2022-07-27T03:32:10.926Z,18.91
2022-07-27T03:33:14.712Z,18.92
2022-07-27T03:34:18.794Z,19.01
2022-07-27T03:35:22.605Z,19.07
2022-07-27T03:36:26.596Z,19.08
2022-07-27T03:37:30.551Z,19.01
2022-07-27T03:38:34.903Z,19.10
2022-07-27T03:39:38.696Z,19.12
2022-07-27T03:40:42.605Z,19.00
2022-07-27T03:41:46.290Z,19.12
2022-07-27T03:42:50.214Z,19.10
2022-07-27T03:43:54.138Z,19.11
2022-07-27T03:44:57.822Z,19.14
2022-07-27T03:46:01.966Z,19.15
2022-07-27T03:47:06.222Z,19.13
2022-07-27T03:48:10.068Z,19.11
2022-07-27T03:49:15.236Z,19.05
2022-07-27T03:50:20.332Z,19.10
2022-07-27T03:51:24.604Z,19.10
2022-07-27T03:52:28.383Z,19.10
2022-07-27T03:53:32.763Z,19.10
2022-07-27T03:54:36.457Z,19.10
2022-07-27T03:55:40.094Z,19.13
2022-07-27T03:56:44.995Z,19.06
2022-07-27T03:57:48.914Z,19.12
2022-07-27T03:58:52.700Z,19.11
2022-07-27T03:59:56.620Z,19.09
2022-07-27T04:01:00.533Z,18.99
2022-07-27T04:02:05.370Z,19.09
2022-07-27T04:03:09.126Z,19.06
2022-07-27T04:04:13.104Z,19.07
2022-07-27T04:05:17.120Z,19.08
2022-07-27T04:06:21.335Z,19.08
2022-07-27T04:07:25.214Z,19.09
2022-07-27T04:08:29.273Z,19.12
2022-07-27T04:09:33.154Z,19.12
2022-07-27T04:10:37.807Z,19.14
2022-07-27T04:11:43.514Z,19.12
2022-07-27T04:12:49.118Z,19.12
2022-07-27T04:13:53.364Z,19.06
2022-07-27T04:14:57.261Z,19.15
2022-07-27T04:16:00.898Z,19.16
2022-07-27T04:17:05.234Z,19.15
2022-07-27T04:18:09.160Z,19.17
2022-07-27T04:19:13.823Z,19.18
2022-07-27T04:20:18.211Z,19.18
2022-07-27T04:21:22.082Z,19.17
2022-07-27T04:22:27.505Z,19.17
2022-07-27T04:23:36.140Z,19.11
2022-07-27T04:24:41.904Z,19.09
2022-07-27T04:25:45.724Z,18.82
2022-07-27T04:26:50.137Z,19.07
2022-07-27T04:27:54.905Z,19.11
2022-07-27T04:28:59.199Z,19.13
2022-07-27T04:30:08.986Z,19.15
2022-07-27T04:31:13.393Z,19.15
2022-07-27T04:32:17.246Z,19.15
2022-07-27T04:33:21.035Z,19.20
2022-07-27T04:34:24.737Z,19.24
2022-07-27T04:35:28.617Z,19.23
2022-07-27T04:36:32.597Z,19.29
2022-07-27T04:37:36.705Z,19.29
2022-07-27T04:38:40.662Z,19.30
2022-07-27T04:39:45.100Z,19.33
2022-07-27T04:40:48.869Z,19.24
2022-07-27T04:41:52.851Z,19.35
2022-07-27T04:42:56.898Z,19.27
2022-07-27T04:44:00.684Z,19.34
2022-07-27T04:45:05.972Z,19.38
2022-07-27T04:46:14.991Z,19.39
2022-07-27T04:47:19.358Z,19.43
2022-07-27T04:48:23.202Z,19.46
2022-07-27T04:49:27.024Z,19.46
2022-07-27T04:50:31.044Z,19.49
2022-07-27T04:51:35.585Z,19.49
2022-07-27T04:52:39.496Z,19.52
2022-07-27T04:53:53.383Z,19.45
2022-07-27T04:55:03.031Z,19.55
2022-07-27T04:56:07.575Z,19.59
2022-07-27T04:57:11.884Z,19.64
2022-07-27T04:58:16.326Z,19.67
2022-07-27T04:59:20.243Z,19.73
2022-07-27T05:00:24.159Z,19.74
2022-07-27T05:01:33.149Z,19.81
2022-07-27T05:02:42.385Z,19.83
2022-07-27T05:03:46.214Z,19.87
2022-07-27T05:04:50.605Z,19.89
2022-07-27T05:05:54.532Z,19.87
2022-07-27T05:06:58.472Z,19.81
2022-07-27T05:08:04.262Z,19.82
2022-07-27T05:09:08.504Z,19.89
2022-07-27T05:10:16.553Z,19.87
2022-07-27T05:11:23.605Z,19.97
2022-07-27T05:12:27.559Z,20.00
2022-07-27T05:13:31.344Z,20.01
2022-07-27T05:14:35.175Z,20.05
2022-07-27T05:15:55.372Z,20.22
2022-07-27T05:16:59.785Z,20.28
2022-07-27T05:18:04.205Z,20.26
2022-07-27T05:19:08.167Z,20.45
2022-07-27T05:20:13.193Z,20.53
2022-07-27T05:21:16.948Z,20.53
2022-07-27T05:22:20.754Z,20.67
2022-07-27T05:23:24.611Z,20.74
2022-07-27T05:24:28.945Z,20.80
2022-07-27T05:25:32.749Z,20.84
2022-07-27T05:26:38.197Z,20.92
2022-07-27T05:27:53.757Z,21.01
2022-07-27T05:28:58.617Z,21.10
2022-07-27T05:30:03.041Z,20.95
2022-07-27T05:31:06.841Z,21.30
2022-07-27T05:32:10.841Z,21.39
2022-07-27T05:33:16.427Z,21.40
2022-07-27T05:34:20.565Z,21.56
2022-07-27T05:35:24.854Z,21.64
2022-07-27T05:36:29.523Z,21.67
2022-07-27T05:37:33.573Z,21.80
2022-07-27T05:38:41.459Z,21.88
2022-07-27T05:39:45.204Z,21.96
2022-07-27T05:40:49.225Z,22.02
2022-07-27T05:41:53.169Z,22.11
2022-07-27T05:42:57.775Z,22.13
2022-07-27T05:44:03.204Z,22.20
2022-07-27T05:45:08.250Z,22.27
2022-07-27T05:46:12.587Z,22.30
2022-07-27T05:47:16.873Z,22.39
2022-07-27T05:48:20.754Z,22.47
2022-07-27T05:49:25.659Z,22.51
2022-07-27T05:50:29.883Z,22.50
2022-07-27T05:51:33.872Z,22.69
2022-07-27T05:52:38.485Z,22.68
2022-07-27T05:53:42.519Z,22.81
2022-07-27T05:54:46.879Z,22.89
2022-07-27T05:55:58.677Z,22.97
2022-07-27T05:57:03.789Z,23.10
2022-07-27T05:58:07.735Z,23.17
2022-07-27T05:59:12.057Z,23.18
2022-07-27T06:00:16.573Z,23.30
2022-07-27T06:01:20.807Z,23.42
2022-07-27T06:02:25.751Z,23.51
2022-07-27T06:03:29.779Z,23.53
2022-07-27T06:04:33.701Z,23.60
2022-07-27T06:05:37.494Z,23.62
2022-07-27T06:06:59.863Z,23.70
2022-07-27T06:08:08.835Z,23.70
2022-07-27T06:09:13.027Z,23.83
2022-07-27T06:10:18.505Z,23.83
2022-07-27T06:11:22.530Z,23.86
2022-07-27T06:12:30.239Z,23.82
2022-07-27T06:13:36.805Z,23.80
2022-07-27T06:14:40.538Z,23.76
2022-07-27T06:15:44.313Z,23.72
2022-07-27T06:16:48.117Z,23.70
2022-07-27T06:17:54.149Z,23.71
2022-07-27T06:18:58.024Z,23.66
2022-07-27T06:20:03.188Z,23.70
2022-07-27T06:21:06.977Z,23.64
2022-07-27T06:22:11.040Z,23.56
2022-07-27T06:23:14.959Z,23.55
2022-07-27T06:24:18.654Z,23.55
2022-07-27T06:25:34.449Z,23.48
2022-07-27T06:26:39.538Z,23.45
2022-07-27T06:27:44.887Z,23.36
2022-07-27T06:28:48.796Z,23.15
2022-07-27T06:29:52.734Z,23.26
2022-07-27T06:30:56.844Z,23.21
2022-07-27T06:32:02.754Z,23.14
2022-07-27T06:33:07.168Z,23.05
2022-07-27T06:34:11.722Z,22.84
2022-07-27T06:35:16.111Z,23.04
2022-07-27T06:36:22.290Z,23.02
2022-07-27T06:37:27.519Z,22.98
2022-07-27T06:38:31.251Z,23.01
2022-07-27T06:39:34.982Z,23.02
2022-07-27T06:40:40.269Z,23.02
2022-07-27T06:41:44.193Z,23.02
2022-07-27T06:42:48.730Z,23.01
2022-07-27T06:43:52.535Z,23.04
2022-07-27T06:44:56.842Z,23.05
2022-07-27T06:46:00.894Z,22.99
2022-07-27T06:47:04.689Z,23.01
2022-07-27T06:48:08.734Z,22.97
2022-07-27T06:49:13.205Z,22.98
2022-07-27T06:50:18.592Z,23.01
2022-07-27T06:51:25.195Z,23.03
2022-07-27T06:52:29.198Z,23.08
2022-07-27T06:53:36.214Z,23.11
2022-07-27T06:54:41.141Z,23.18
2022-07-27T06:55:45.216Z,23.28
2022-07-27T06:56:49.381Z,23.27
2022-07-27T06:57:53.339Z,23.43
2022-07-27T06:58:57.351Z,23.66
2022-07-27T07:00:01.268Z,23.52
2022-07-27T07:01:06.195Z,23.83
2022-07-27T07:02:10.416Z,23.77
2022-07-27T07:03:14.172Z,24.03
2022-07-27T07:04:18.302Z,24.17
2022-07-27T07:05:29.707Z,24.31
2022-07-27T07:06:33.559Z,24.45
2022-07-27T07:07:37.349Z,24.49
2022-07-27T07:08:41.483Z,24.52
2022-07-27T07:09:45.297Z,24.52
2022-07-27T07:10:50.710Z,24.54
2022-07-27T07:11:55.248Z,24.66
2022-07-27T07:13:05.504Z,24.80
2022-07-27T07:14:11.067Z,25.08
2022-07-27T07:15:15.205Z,25.38
2022-07-27T07:16:19.304Z,25.70
2022-07-27T07:17:23.094Z,25.94
2022-07-27T07:18:26.854Z,25.92
2022-07-27T07:19:30.809Z,26.16
2022-07-27T07:20:37.080Z,26.10
2022-07-27T07:21:41.115Z,26.07
2022-07-27T07:22:45.538Z,25.99
2022-07-27T07:23:49.498Z,25.90
2022-07-27T07:24:53.355Z,25.66
2022-07-27T07:25:57.154Z,25.75
2022-07-27T07:27:00.904Z,25.78
2022-07-27T07:28:07.325Z,25.87
2022-07-27T07:29:12.028Z,25.93
2022-07-27T07:30:16.598Z,26.00
2022-07-27T07:31:20.696Z,26.12
2022-07-27T07:32:28.977Z,26.30
2022-07-27T07:33:37.126Z,26.49
2022-07-27T07:34:40.807Z,26.45
2022-07-27T07:36:12.633Z,26.55
2022-07-27T07:37:08.518Z,26.47
2022-07-27T07:38:12.308Z,26.35
2022-07-27T07:39:17.416Z,26.28
2022-07-27T07:41:45.402Z,26.65
2022-07-27T07:42:52.892Z,26.99
2022-07-27T07:43:56.728Z,27.38
2022-07-27T07:45:00.808Z,27.88
2022-07-27T07:46:05.967Z,28.09
2022-07-27T07:47:10.362Z,28.29
2022-07-27T07:48:14.444Z,28.60
2022-07-27T07:49:18.770Z,28.82
2022-07-27T07:50:42.123Z,28.99
2022-07-27T07:51:46.035Z,29.14
2022-07-27T07:52:57.019Z,29.24
2022-07-27T07:54:00.866Z,29.16
2022-07-27T07:55:05.934Z,29.03
2022-07-27T07:56:10.147Z,28.67
2022-07-27T07:57:14.260Z,28.53
2022-07-27T07:58:18.335Z,28.33
2022-07-27T07:59:22.360Z,28.03
2022-07-27T08:00:26.858Z,27.94
2022-07-27T08:01:31.147Z,27.71
2022-07-27T08:02:45.898Z,27.42
2022-07-27T08:03:51.289Z,27.24
2022-07-27T08:04:55.661Z,27.01
2022-07-27T08:05:59.356Z,26.85
2022-07-27T08:07:06.485Z,26.67
2022-07-27T08:08:10.646Z,26.54
2022-07-27T08:09:17.128Z,26.43
2022-07-27T08:10:23.491Z,26.30
2022-07-27T08:11:28.303Z,26.18
2022-07-27T08:12:32.736Z,26.07
2022-07-27T08:13:36.873Z,25.95
2022-07-27T08:14:40.798Z,25.89
2022-07-27T08:15:44.880Z,25.87
2022-07-27T08:16:48.662Z,25.91
2022-07-27T08:17:52.870Z,26.00
2022-07-27T08:18:56.681Z,26.25
2022-07-27T08:20:00.671Z,26.70
2022-07-27T08:21:04.678Z,27.39
2022-07-27T08:22:08.547Z,27.93
2022-07-27T08:23:15.092Z,28.26
2022-07-27T08:24:18.871Z,28.53
2022-07-27T08:25:23.160Z,28.95
2022-07-27T08:26:27.110Z,29.40
2022-07-27T08:27:31.226Z,29.87
2022-07-27T08:28:45.287Z,30.44
2022-07-27T08:29:51.907Z,30.95
2022-07-27T08:30:56.046Z,31.46
2022-07-27T08:32:00.028Z,31.89
2022-07-27T08:33:05.924Z,32.43
2022-07-27T08:34:09.861Z,32.72
2022-07-27T08:35:17.276Z,32.89
2022-07-27T08:36:21.359Z,33.12
2022-07-27T08:37:25.280Z,33.33
2022-07-27T08:38:30.113Z,33.51
2022-07-27T08:40:35.213Z,33.80
2022-07-27T08:41:02.335Z,34.09
2022-07-27T08:42:10.696Z,34.24
2022-07-27T08:43:21.811Z,34.38
2022-07-27T08:44:30.058Z,34.27
2022-07-27T08:45:34.751Z,34.25
2022-07-27T08:46:40.826Z,34.28
2022-07-27T08:47:46.093Z,34.29
2022-07-27T08:48:50.870Z,34.33
2022-07-27T08:49:54.936Z,34.61
2022-07-27T08:50:59.181Z,34.85
2022-07-27T08:52:04.265Z,34.78
2022-07-27T08:53:11.649Z,34.67
2022-07-27T08:54:16.693Z,34.97
2022-07-27T08:55:21.092Z,35.32
2022-07-27T08:56:25.087Z,35.68
2022-07-27T08:57:30.042Z,35.87
2022-07-27T08:58:33.813Z,35.69
2022-07-27T08:59:38.244Z,35.36
2022-07-27T09:00:51.789Z,35.08
2022-07-27T09:01:55.989Z,35.08
2022-07-27T09:03:00.339Z,34.99
2022-07-27T09:04:04.300Z,34.70
2022-07-27T09:05:09.627Z,34.36
2022-07-27T09:06:13.746Z,34.11
2022-07-27T09:07:31.726Z,33.83
2022-07-27T09:08:38.580Z,33.75
2022-07-27T09:09:48.055Z,33.60
2022-07-27T09:10:55.909Z,33.53
2022-07-27T09:12:10.588Z,33.30
2022-07-27T09:13:27.452Z,33.06
2022-07-27T09:14:35.397Z,32.78
2022-07-27T09:16:15.801Z,32.52
2022-07-27T09:19:10.711Z,31.94
2022-07-27T09:20:19.804Z,31.68
2022-07-27T09:21:25.173Z,31.46
2022-07-27T09:22:44.626Z,31.26
2022-07-27T09:23:57.542Z,31.05
2022-07-27T09:25:05.349Z,30.82
2022-07-27T09:26:36.022Z,30.67
2022-07-27T09:27:46.134Z,30.58
2022-07-27T09:29:12.912Z,30.55
2022-07-27T09:30:20.833Z,30.45
2022-07-27T09:31:25.793Z,30.40
2022-07-27T09:32:30.616Z,30.43
2022-07-27T09:33:50.036Z,30.40
2022-07-27T09:34:54.079Z,30.31
2022-07-27T09:36:01.046Z,30.38
2022-07-27T09:37:06.616Z,30.42
2022-07-27T09:38:24.988Z,30.40
2022-07-27T09:39:29.275Z,30.39
2022-07-27T09:40:36.540Z,30.37
2022-07-27T09:41:41.920Z,30.30
2022-07-27T09:43:06.773Z,30.24
2022-07-27T09:45:37.747Z,30.05
2022-07-27T09:46:48.564Z,30.11
2022-07-27T09:47:53.404Z,30.02
2022-07-27T09:48:57.659Z,30.00
2022-07-27T09:50:31.104Z,29.86
2022-07-27T09:52:02.632Z,29.82
2022-07-27T09:53:42.511Z,29.67
2022-07-27T09:54:47.657Z,29.61
2022-07-27T09:56:03.305Z,29.51
2022-07-27T09:57:07.188Z,29.46
2022-07-27T09:58:15.513Z,29.39
2022-07-27T09:59:19.903Z,29.27
2022-07-27T10:00:25.728Z,29.31
2022-07-27T10:01:35.306Z,29.25
2022-07-27T10:02:43.155Z,29.22
2022-07-27T10:03:50.849Z,29.18
2022-07-27T10:04:55.400Z,29.24
2022-07-27T10:06:00.186Z,29.22
2022-07-27T10:07:07.262Z,29.19
2022-07-27T10:08:14.816Z,29.18
2022-07-27T10:09:20.716Z,29.09
2022-07-27T10:10:25.119Z,29.17
2022-07-27T10:11:29.841Z,29.07
2022-07-27T10:12:33.788Z,29.20
2022-07-27T10:13:43.655Z,29.22
2022-07-27T10:14:47.905Z,29.22
2022-07-27T10:15:54.453Z,29.21
2022-07-27T10:16:58.730Z,29.15
2022-07-27T10:18:21.362Z,29.24
2022-07-27T10:19:50.744Z,29.29
2022-07-27T10:20:57.967Z,29.30
2022-07-27T10:22:01.866Z,29.27
2022-07-27T10:23:07.418Z,29.22
2022-07-27T10:24:26.933Z,29.12
2022-07-27T10:25:32.679Z,29.07
2022-07-27T10:26:43.714Z,28.96
2022-07-27T10:28:08.240Z,28.87
2022-07-27T10:29:14.904Z,28.85
2022-07-27T10:30:23.891Z,28.71
2022-07-27T10:31:42.718Z,28.74
2022-07-27T10:32:47.465Z,28.66
2022-07-27T10:33:56.151Z,28.75
2022-07-27T10:35:02.235Z,28.77
2022-07-27T10:36:17.027Z,28.78
2022-07-27T10:37:31.750Z,28.72
2022-07-27T10:38:56.775Z,28.68
2022-07-27T10:40:43.743Z,28.65
2022-07-27T10:41:47.858Z,28.59
2022-07-27T10:43:06.102Z,28.54
2022-07-27T10:44:18.405Z,28.44
2022-07-27T10:45:22.905Z,28.33
2022-07-27T10:46:27.046Z,28.41
2022-07-27T10:47:41.658Z,28.38
2022-07-27T10:48:49.152Z,28.38
2022-07-27T10:50:16.079Z,28.47
2022-07-27T10:51:35.508Z,28.51
2022-07-27T10:52:47.848Z,28.53
2022-07-27T10:55:31.495Z,28.60
2022-07-27T10:56:47.533Z,28.52
2022-07-27T10:57:51.264Z,28.64
2022-07-27T10:58:55.022Z,28.64
2022-07-27T11:00:08.728Z,28.69
2022-07-27T11:01:16.524Z,28.70
2022-07-27T11:02:42.787Z,28.70
2022-07-27T11:03:52.718Z,28.67
2022-07-27T11:04:56.630Z,28.64
2022-07-27T11:06:31.907Z,28.57
2022-07-27T11:07:44.875Z,28.56
2022-07-27T11:09:17.018Z,28.47
2022-07-27T11:10:15.856Z,28.39
2022-07-27T11:11:26.310Z,28.37
2022-07-27T11:12:30.569Z,28.38
2022-07-27T11:13:38.995Z,28.38
2022-07-27T11:14:55.923Z,28.23
2022-07-27T11:16:23.416Z,28.29
2022-07-27T11:19:01.862Z,28.30
2022-07-27T11:20:06.655Z,28.29
2022-07-27T11:21:34.936Z,28.21
2022-07-27T11:24:19.975Z,28.23
2022-07-27T11:25:24.170Z,28.21
2022-07-27T11:26:31.655Z,28.15
2022-07-27T11:27:50.397Z,28.15
2022-07-27T11:28:54.885Z,28.17
2022-07-27T11:29:59.181Z,28.15
2022-07-27T11:31:04.544Z,28.16
2022-07-27T11:32:08.540Z,28.17
2022-07-27T11:33:13.772Z,28.13
2022-07-27T11:34:20.415Z,28.18
2022-07-27T11:35:25.066Z,28.18
2022-07-27T11:36:46.333Z,28.22
2022-07-27T11:38:06.060Z,28.12
2022-07-27T11:40:59.894Z,28.22
2022-07-27T11:42:18.671Z,28.21
2022-07-27T11:43:52.343Z,28.22
2022-07-27T11:44:56.352Z,28.26
2022-07-27T11:46:24.271Z,28.25
2022-07-27T11:47:30.231Z,28.30
2022-07-27T11:48:56.351Z,28.30
2022-07-27T11:50:11.534Z,28.28
2022-07-27T11:51:19.732Z,28.29
2022-07-27T11:52:25.472Z,28.32
2022-07-27T11:53:29.584Z,28.32
2022-07-27T11:54:42.125Z,28.31
2022-07-27T11:55:50.065Z,28.34
2022-07-27T11:57:00.678Z,28.36
2022-07-27T11:58:05.335Z,28.37
2022-07-27T11:59:30.955Z,28.38
2022-07-27T12:00:42.612Z,28.37
2022-07-27T12:01:51.028Z,28.38
2022-07-27T12:02:55.032Z,28.37
2022-07-27T12:04:19.141Z,28.34
2022-07-27T12:05:23.002Z,28.34
2022-07-27T12:06:27.000Z,28.28
2022-07-27T12:07:33.966Z,28.18
2022-07-27T12:08:38.163Z,28.20
2022-07-27T12:09:48.868Z,28.02
2022-07-27T12:11:01.312Z,28.16
2022-07-27T12:12:26.164Z,28.17
2022-07-27T12:13:36.570Z,28.18
2022-07-27T12:14:51.491Z,28.21
2022-07-27T12:15:58.734Z,28.23
2022-07-27T12:17:26.370Z,28.23
2022-07-27T12:18:44.137Z,28.23
2022-07-27T12:19:59.466Z,28.23
2022-07-27T12:21:03.434Z,28.22
2022-07-27T12:22:08.360Z,28.20
2022-07-27T12:23:12.257Z,28.20
2022-07-27T12:24:16.369Z,28.19
2022-07-27T12:25:29.987Z,28.19
2022-07-27T12:26:33.792Z,28.23
2022-07-27T12:27:39.090Z,28.20
2022-07-27T12:28:43.755Z,28.24
2022-07-27T12:30:08.638Z,28.24
2022-07-27T12:31:19.427Z,28.28
2022-07-27T12:32:24.010Z,28.15
2022-07-27T12:33:38.117Z,28.20
2022-07-27T12:34:42.049Z,28.22
2022-07-27T12:35:47.250Z,28.22
2022-07-27T12:36:51.183Z,28.25
2022-07-27T12:38:03.565Z,28.24
2022-07-27T12:39:07.876Z,28.27
2022-07-27T12:40:19.368Z,28.30
2022-07-27T12:41:29.894Z,28.30
2022-07-27T12:42:36.878Z,28.32
2022-07-27T12:43:41.441Z,28.22
2022-07-27T12:44:47.082Z,28.23
2022-07-27T12:45:54.099Z,28.18
2022-07-27T12:47:02.369Z,28.13
2022-07-27T12:48:41.683Z,28.14
2022-07-27T12:49:58.996Z,28.17
2022-07-27T12:51:08.624Z,28.16
2022-07-27T12:52:12.698Z,28.21
2022-07-27T12:53:18.110Z,28.22
2022-07-27T12:54:22.294Z,28.13
2022-07-27T12:55:26.219Z,28.11
2022-07-27T12:56:30.341Z,28.10
2022-07-27T12:57:54.681Z,28.10
2022-07-27T12:59:03.900Z,28.07
2022-07-27T13:00:12.855Z,28.04
2022-07-27T13:01:16.788Z,27.96
2022-07-27T13:02:20.982Z,28.05
2022-07-27T13:03:24.958Z,28.08
2022-07-27T13:04:28.632Z,28.08
2022-07-27T13:05:34.262Z,28.09
2022-07-27T13:06:38.400Z,28.09
2022-07-27T13:07:46.686Z,28.09
2022-07-27T13:08:50.789Z,28.09
2022-07-27T13:10:03.634Z,28.07
2022-07-27T13:11:08.300Z,27.95
2022-07-27T13:12:12.416Z,28.06
2022-07-27T13:13:16.324Z,28.07
2022-07-27T13:14:20.297Z,28.08
2022-07-27T13:15:23.937Z,28.07
2022-07-27T13:16:28.058Z,28.05
2022-07-27T13:17:31.948Z,27.96
2022-07-27T13:18:35.931Z,28.00
2022-07-27T13:19:39.831Z,28.02
2022-07-27T13:20:43.667Z,28.02
2022-07-27T13:21:47.566Z,28.00
2022-07-27T13:22:51.576Z,28.01
2022-07-27T13:23:55.485Z,28.02
2022-07-27T13:24:59.372Z,28.00
2022-07-27T13:26:03.161Z,27.95
2022-07-27T13:27:07.621Z,27.92
2022-07-27T13:28:12.049Z,27.84
2022-07-27T13:29:17.757Z,27.88
2022-07-27T13:30:22.328Z,27.83
2022-07-27T13:31:26.347Z,27.91
2022-07-27T13:32:30.347Z,27.91
2022-07-27T13:33:34.295Z,27.90
2022-07-27T13:34:38.352Z,27.84
2022-07-27T13:35:43.019Z,27.83
2022-07-27T13:36:46.988Z,27.79
2022-07-27T13:37:50.848Z,27.72
2022-07-27T13:38:54.748Z,27.83
2022-07-27T13:39:58.591Z,27.81
2022-07-27T13:41:02.786Z,27.84
2022-07-27T13:42:07.292Z,27.72
2022-07-27T13:43:14.228Z,27.75
2022-07-27T13:44:49.849Z,27.74
2022-07-27T13:45:45.031Z,27.80
2022-07-27T13:46:49.830Z,27.74
2022-07-27T13:47:54.712Z,27.81
2022-07-27T13:48:58.630Z,27.62
2022-07-27T13:50:03.728Z,27.77
2022-07-27T13:51:07.673Z,27.78
2022-07-27T13:52:15.020Z,27.74
2022-07-27T13:53:19.212Z,27.76
2022-07-27T13:54:23.181Z,27.76
2022-07-27T13:55:28.404Z,27.73
2022-07-27T13:56:33.366Z,27.71
2022-07-27T13:57:37.196Z,27.66
2022-07-27T13:58:41.378Z,27.65
2022-07-27T13:59:45.238Z,27.64
2022-07-27T14:00:49.886Z,27.63
2022-07-27T14:01:54.575Z,27.63
2022-07-27T14:03:00.528Z,27.61
2022-07-27T14:04:07.221Z,27.58
2022-07-27T14:05:13.957Z,27.59
2022-07-27T14:06:21.049Z,27.51
2022-07-27T14:07:28.364Z,27.59
2022-07-27T14:08:32.533Z,27.58
2022-07-27T14:09:54.696Z,27.57
2022-07-27T14:10:58.581Z,27.57
2022-07-27T14:12:02.179Z,27.43
2022-07-27T14:13:11.747Z,27.51
2022-07-27T14:14:15.464Z,27.45
2022-07-27T14:15:25.670Z,27.51
2022-07-27T14:16:29.876Z,27.49
2022-07-27T14:17:33.639Z,27.40
2022-07-27T14:18:38.230Z,27.52
2022-07-27T14:19:42.338Z,27.56
2022-07-27T14:20:46.626Z,27.39
2022-07-27T14:21:50.881Z,27.59
2022-07-27T14:22:54.771Z,27.59
2022-07-27T14:24:00.957Z,27.59
2022-07-27T14:25:05.576Z,27.63
2022-07-27T14:26:10.325Z,27.65
2022-07-27T14:27:14.181Z,27.68
2022-07-27T14:28:19.153Z,27.70
2022-07-27T14:29:22.955Z,27.64
2022-07-27T14:30:29.145Z,27.75